sensor_id;sensor_type;location;lat;lon;timestamp;temperature;humidity
41318;DHT22;27067;51.554;7.026;2022-07-22T00:00:51;22.80;90.70
41318;DHT22;27067;51.554;7.026;2022-07-22T00:03:16;22.70;91.00
41318;DHT22;27067;51.554;7.026;2022-07-22T00:05:42;22.70;91.00
41318;DHT22;27067;51.554;7.026;2022-07-22T00:08:07;22.80;90.90
41318;DHT22;27067;51.554;7.026;2022-07-22T00:10:33;22.70;90.70
41318;DHT22;27067;51.554;7.026;2022-07-22T00:12:59;22.70;90.90
41318;DHT22;27067;51.554;7.026;2022-07-22T00:15:24;22.80;90.90
41318;DHT22;27067;51.554;7.026;2022-07-22T00:17:50;22.70;90.90
41318;DHT22;27067;51.554;7.026;2022-07-22T00:20:15;22.80;90.80
41318;DHT22;27067;51.554;7.026;2022-07-22T00:22:41;22.70;91.00
41318;DHT22;27067;51.554;7.026;2022-07-22T00:25:06;22.80;91.00
41318;DHT22;27067;51.554;7.026;2022-07-22T00:27:32;22.80;90.90
41318;DHT22;27067;51.554;7.026;2022-07-22T00:32:24;22.80;90.70
41318;DHT22;27067;51.554;7.026;2022-07-22T00:34:50;22.80;90.80
41318;DHT22;27067;51.554;7.026;2022-07-22T00:37:15;22.80;90.80
41318;DHT22;27067;51.554;7.026;2022-07-22T00:39:41;22.70;90.70
41318;DHT22;27067;51.554;7.026;2022-07-22T00:42:06;22.70;90.50
41318;DHT22;27067;51.554;7.026;2022-07-22T00:44:32;22.70;90.90
41318;DHT22;27067;51.554;7.026;2022-07-22T00:46:58;22.70;90.90
41318;DHT22;27067;51.554;7.026;2022-07-22T00:49:23;22.80;90.80
41318;DHT22;27067;51.554;7.026;2022-07-22T00:51:49;22.80;90.60
41318;DHT22;27067;51.554;7.026;2022-07-22T00:54:14;22.80;90.90
41318;DHT22;27067;51.554;7.026;2022-07-22T00:56:40;22.80;90.70
41318;DHT22;27067;51.554;7.026;2022-07-22T00:59:07;22.70;90.50
41318;DHT22;27067;51.554;7.026;2022-07-22T01:01:32;22.80;90.70
41318;DHT22;27067;51.554;7.026;2022-07-22T01:03:58;22.80;90.90
41318;DHT22;27067;51.554;7.026;2022-07-22T01:06:23;22.80;90.90
41318;DHT22;27067;51.554;7.026;2022-07-22T01:08:49;22.80;90.80
41318;DHT22;27067;51.554;7.026;2022-07-22T01:11:16;22.80;90.60
41318;DHT22;27067;51.554;7.026;2022-07-22T01:13:42;22.80;90.80
41318;DHT22;27067;51.554;7.026;2022-07-22T01:16:09;22.90;90.80
41318;DHT22;27067;51.554;7.026;2022-07-22T01:18:35;22.90;90.80
41318;DHT22;27067;51.554;7.026;2022-07-22T01:21:01;22.90;90.40
41318;DHT22;27067;51.554;7.026;2022-07-22T01:23:27;22.90;90.60
41318;DHT22;27067;51.554;7.026;2022-07-22T01:25:52;22.90;90.70
41318;DHT22;27067;51.554;7.026;2022-07-22T01:28:18;22.90;90.70
41318;DHT22;27067;51.554;7.026;2022-07-22T01:30:44;22.90;90.40
41318;DHT22;27067;51.554;7.026;2022-07-22T01:33:09;22.90;90.70
41318;DHT22;27067;51.554;7.026;2022-07-22T01:35:35;22.90;90.70
41318;DHT22;27067;51.554;7.026;2022-07-22T01:38:00;22.90;90.60
41318;DHT22;27067;51.554;7.026;2022-07-22T01:40:26;22.90;90.40
41318;DHT22;27067;51.554;7.026;2022-07-22T01:42:52;22.90;90.60
41318;DHT22;27067;51.554;7.026;2022-07-22T01:45:17;22.90;90.60
41318;DHT22;27067;51.554;7.026;2022-07-22T01:47:43;22.90;90.60
41318;DHT22;27067;51.554;7.026;2022-07-22T01:50:09;22.90;90.30
41318;DHT22;27067;51.554;7.026;2022-07-22T01:52:35;22.90;90.60
41318;DHT22;27067;51.554;7.026;2022-07-22T01:55:01;22.90;90.60
41318;DHT22;27067;51.554;7.026;2022-07-22T01:57:27;22.90;90.50
41318;DHT22;27067;51.554;7.026;2022-07-22T01:59:52;22.90;90.50
41318;DHT22;27067;51.554;7.026;2022-07-22T02:02:18;22.90;90.20
41318;DHT22;27067;51.554;7.026;2022-07-22T02:04:43;22.90;90.40
41318;DHT22;27067;51.554;7.026;2022-07-22T02:07:09;22.90;90.40
41318;DHT22;27067;51.554;7.026;2022-07-22T02:09:34;22.90;90.40
41318;DHT22;27067;51.554;7.026;2022-07-22T02:12:00;22.90;90.20
41318;DHT22;27067;51.554;7.026;2022-07-22T02:14:25;22.90;90.40
41318;DHT22;27067;51.554;7.026;2022-07-22T02:16:51;22.90;90.40
41318;DHT22;27067;51.554;7.026;2022-07-22T02:19:16;22.80;90.30
41318;DHT22;27067;51.554;7.026;2022-07-22T02:21:42;22.80;90.00
41318;DHT22;27067;51.554;7.026;2022-07-22T02:24:07;22.70;90.30
41318;DHT22;27067;51.554;7.026;2022-07-22T02:26:33;22.70;90.40
41318;DHT22;27067;51.554;7.026;2022-07-22T02:28:59;22.80;90.50
41318;DHT22;27067;51.554;7.026;2022-07-22T02:31:25;22.70;90.20
41318;DHT22;27067;51.554;7.026;2022-07-22T02:33:51;22.80;90.50
41318;DHT22;27067;51.554;7.026;2022-07-22T02:36:16;22.80;90.50
41318;DHT22;27067;51.554;7.026;2022-07-22T02:38:42;22.70;90.40
41318;DHT22;27067;51.554;7.026;2022-07-22T02:41:07;22.70;90.20
41318;DHT22;27067;51.554;7.026;2022-07-22T02:43:33;22.70;90.40
41318;DHT22;27067;51.554;7.026;2022-07-22T02:45:58;22.70;90.40
41318;DHT22;27067;51.554;7.026;2022-07-22T02:48:24;22.70;90.20
41318;DHT22;27067;51.554;7.026;2022-07-22T02:50:49;22.70;90.10
41318;DHT22;27067;51.554;7.026;2022-07-22T02:53:15;22.70;90.40
41318;DHT22;27067;51.554;7.026;2022-07-22T02:55:40;22.70;90.40
41318;DHT22;27067;51.554;7.026;2022-07-22T02:58:06;22.70;90.30
41318;DHT22;27067;51.554;7.026;2022-07-22T03:00:32;22.70;90.00
41318;DHT22;27067;51.554;7.026;2022-07-22T03:02:58;22.80;90.30
41318;DHT22;27067;51.554;7.026;2022-07-22T03:05:24;22.80;90.20
41318;DHT22;27067;51.554;7.026;2022-07-22T03:07:50;22.80;90.20
41318;DHT22;27067;51.554;7.026;2022-07-22T03:10:15;22.80;90.10
41318;DHT22;27067;51.554;7.026;2022-07-22T03:12:41;22.90;89.70
41318;DHT22;27067;51.554;7.026;2022-07-22T03:15:06;22.80;90.00
41318;DHT22;27067;51.554;7.026;2022-07-22T03:17:35;22.80;90.10
41318;DHT22;27067;51.554;7.026;2022-07-22T03:20:05;22.80;89.70
41318;DHT22;27067;51.554;7.026;2022-07-22T03:22:31;22.80;90.10
41318;DHT22;27067;51.554;7.026;2022-07-22T03:24:56;22.80;90.10
41318;DHT22;27067;51.554;7.026;2022-07-22T03:27:22;22.90;90.00
41318;DHT22;27067;51.554;7.026;2022-07-22T03:29:47;22.90;90.00
41318;DHT22;27067;51.554;7.026;2022-07-22T03:32:13;22.90;89.40
41318;DHT22;27067;51.554;7.026;2022-07-22T03:34:38;22.90;89.80
41318;DHT22;27067;51.554;7.026;2022-07-22T03:37:04;22.90;89.80
41318;DHT22;27067;51.554;7.026;2022-07-22T03:39:29;22.90;89.90
41318;DHT22;27067;51.554;7.026;2022-07-22T03:41:55;22.90;89.40
41318;DHT22;27067;51.554;7.026;2022-07-22T03:44:20;22.90;90.10
41318;DHT22;27067;51.554;7.026;2022-07-22T03:46:46;22.80;90.20
41318;DHT22;27067;51.554;7.026;2022-07-22T03:49:11;22.80;90.40
41318;DHT22;27067;51.554;7.026;2022-07-22T03:51:37;22.80;90.10
41318;DHT22;27067;51.554;7.026;2022-07-22T03:54:02;22.80;90.40
41318;DHT22;27067;51.554;7.026;2022-07-22T03:56:28;22.80;90.40
41318;DHT22;27067;51.554;7.026;2022-07-22T03:58:53;22.80;90.30
41318;DHT22;27067;51.554;7.026;2022-07-22T04:01:19;22.90;90.10
41318;DHT22;27067;51.554;7.026;2022-07-22T04:03:45;22.90;90.30
41318;DHT22;27067;51.554;7.026;2022-07-22T04:06:10;22.90;90.20
41318;DHT22;27067;51.554;7.026;2022-07-22T04:08:36;23.00;90.10
41318;DHT22;27067;51.554;7.026;2022-07-22T04:11:01;23.00;90.50
41318;DHT22;27067;51.554;7.026;2022-07-22T04:13:27;23.00;90.70
41318;DHT22;27067;51.554;7.026;2022-07-22T04:15:52;23.00;90.60
41318;DHT22;27067;51.554;7.026;2022-07-22T04:18:18;23.00;90.70
41318;DHT22;27067;51.554;7.026;2022-07-22T04:20:43;23.00;90.30
41318;DHT22;27067;51.554;7.026;2022-07-22T04:23:09;23.00;90.50
41318;DHT22;27067;51.554;7.026;2022-07-22T04:25:34;23.00;90.50
41318;DHT22;27067;51.554;7.026;2022-07-22T04:28:00;23.00;90.50
41318;DHT22;27067;51.554;7.026;2022-07-22T04:30:25;23.00;90.10
41318;DHT22;27067;51.554;7.026;2022-07-22T04:32:51;23.00;90.30
41318;DHT22;27067;51.554;7.026;2022-07-22T04:35:16;23.00;90.30
41318;DHT22;27067;51.554;7.026;2022-07-22T04:37:42;23.10;90.30
41318;DHT22;27067;51.554;7.026;2022-07-22T04:40:08;23.10;89.90
41318;DHT22;27067;51.554;7.026;2022-07-22T04:42:33;23.10;90.20
41318;DHT22;27067;51.554;7.026;2022-07-22T04:44:59;23.10;90.10
41318;DHT22;27067;51.554;7.026;2022-07-22T04:47:24;23.10;90.20
41318;DHT22;27067;51.554;7.026;2022-07-22T04:49:50;23.00;90.30
41318;DHT22;27067;51.554;7.026;2022-07-22T04:52:15;23.00;90.00
41318;DHT22;27067;51.554;7.026;2022-07-22T04:54:41;23.10;90.20
41318;DHT22;27067;51.554;7.026;2022-07-22T04:57:07;23.00;90.20
41318;DHT22;27067;51.554;7.026;2022-07-22T04:59:32;23.00;90.00
41318;DHT22;27067;51.554;7.026;2022-07-22T05:01:58;23.00;90.00
41318;DHT22;27067;51.554;7.026;2022-07-22T05:04:23;23.00;90.20
41318;DHT22;27067;51.554;7.026;2022-07-22T05:06:49;23.00;90.10
41318;DHT22;27067;51.554;7.026;2022-07-22T05:09:14;22.90;89.90
41318;DHT22;27067;51.554;7.026;2022-07-22T05:11:40;22.80;90.00
41318;DHT22;27067;51.554;7.026;2022-07-22T05:14:05;22.80;90.30
41318;DHT22;27067;51.554;7.026;2022-07-22T05:16:31;22.70;90.30
41318;DHT22;27067;51.554;7.026;2022-07-22T05:18:56;22.70;90.10
41318;DHT22;27067;51.554;7.026;2022-07-22T05:21:22;22.70;89.40
41318;DHT22;27067;51.554;7.026;2022-07-22T05:23:47;22.60;89.40
41318;DHT22;27067;51.554;7.026;2022-07-22T05:26:13;22.60;90.30
41318;DHT22;27067;51.554;7.026;2022-07-22T05:28:38;22.60;89.40
41318;DHT22;27067;51.554;7.026;2022-07-22T05:31:04;22.60;89.90
41318;DHT22;27067;51.554;7.026;2022-07-22T05:33:30;22.60;90.30
41318;DHT22;27067;51.554;7.026;2022-07-22T05:35:55;22.70;90.40
41318;DHT22;27067;51.554;7.026;2022-07-22T05:38:21;22.70;90.20
41318;DHT22;27067;51.554;7.026;2022-07-22T05:40:46;22.60;89.40
41318;DHT22;27067;51.554;7.026;2022-07-22T05:43:12;22.60;90.10
41318;DHT22;27067;51.554;7.026;2022-07-22T05:45:37;22.60;90.20
41318;DHT22;27067;51.554;7.026;2022-07-22T05:48:03;22.70;90.30
41318;DHT22;27067;51.554;7.026;2022-07-22T05:50:28;22.60;89.50
41318;DHT22;27067;51.554;7.026;2022-07-22T05:52:54;22.60;89.40
41318;DHT22;27067;51.554;7.026;2022-07-22T05:55:20;22.50;88.20
41318;DHT22;27067;51.554;7.026;2022-07-22T05:57:45;22.50;90.10
41318;DHT22;27067;51.554;7.026;2022-07-22T06:00:11;22.50;89.80
41318;DHT22;27067;51.554;7.026;2022-07-22T06:02:36;22.50;90.10
41318;DHT22;27067;51.554;7.026;2022-07-22T06:05:02;22.50;89.00
41318;DHT22;27067;51.554;7.026;2022-07-22T06:07:28;22.50;90.10
41318;DHT22;27067;51.554;7.026;2022-07-22T06:09:53;22.50;89.40
41318;DHT22;27067;51.554;7.026;2022-07-22T06:12:19;22.40;88.30
41318;DHT22;27067;51.554;7.026;2022-07-22T06:14:44;22.40;89.40
41318;DHT22;27067;51.554;7.026;2022-07-22T06:17:11;22.40;89.50
41318;DHT22;27067;51.554;7.026;2022-07-22T06:19:37;22.30;90.60
41318;DHT22;27067;51.554;7.026;2022-07-22T06:22:03;22.40;91.90
41318;DHT22;27067;51.554;7.026;2022-07-22T06:24:28;22.50;92.30
41318;DHT22;27067;51.554;7.026;2022-07-22T06:26:54;22.70;92.40
41318;DHT22;27067;51.554;7.026;2022-07-22T06:29:19;22.70;92.30
41318;DHT22;27067;51.554;7.026;2022-07-22T06:31:45;22.80;91.90
41318;DHT22;27067;51.554;7.026;2022-07-22T06:34:10;22.90;92.10
41318;DHT22;27067;51.554;7.026;2022-07-22T06:36:36;22.30;91.70
41318;DHT22;27067;51.554;7.026;2022-07-22T06:39:01;22.90;91.60
41318;DHT22;27067;51.554;7.026;2022-07-22T06:41:27;23.00;91.20
41318;DHT22;27067;51.554;7.026;2022-07-22T06:43:53;22.90;91.30
41318;DHT22;27067;51.554;7.026;2022-07-22T06:46:18;23.00;91.20
41318;DHT22;27067;51.554;7.026;2022-07-22T06:48:44;23.00;91.00
41318;DHT22;27067;51.554;7.026;2022-07-22T06:51:09;22.90;90.40
41318;DHT22;27067;51.554;7.026;2022-07-22T06:53:35;22.90;90.80
41318;DHT22;27067;51.554;7.026;2022-07-22T06:56:00;22.90;90.80
41318;DHT22;27067;51.554;7.026;2022-07-22T06:58:26;22.90;90.70
41318;DHT22;27067;51.554;7.026;2022-07-22T07:00:51;22.90;90.30
41318;DHT22;27067;51.554;7.026;2022-07-22T07:03:17;22.90;90.50
41318;DHT22;27067;51.554;7.026;2022-07-22T07:05:43;22.90;90.40
41318;DHT22;27067;51.554;7.026;2022-07-22T07:08:08;22.90;90.30
41318;DHT22;27067;51.554;7.026;2022-07-22T07:10:34;22.90;90.00
41318;DHT22;27067;51.554;7.026;2022-07-22T07:12:59;22.90;90.20
41318;DHT22;27067;51.554;7.026;2022-07-22T07:15:25;22.90;90.20
41318;DHT22;27067;51.554;7.026;2022-07-22T07:17:55;22.90;90.10
41318;DHT22;27067;51.554;7.026;2022-07-22T07:20:22;22.90;89.50
41318;DHT22;27067;51.554;7.026;2022-07-22T07:22:47;22.90;90.00
41318;DHT22;27067;51.554;7.026;2022-07-22T07:25:13;23.00;90.00
41318;DHT22;27067;51.554;7.026;2022-07-22T07:27:38;23.00;89.80
41318;DHT22;27067;51.554;7.026;2022-07-22T07:30:05;23.00;89.60
41318;DHT22;27067;51.554;7.026;2022-07-22T07:32:31;23.00;89.50
41318;DHT22;27067;51.554;7.026;2022-07-22T07:34:56;23.00;89.40
41318;DHT22;27067;51.554;7.026;2022-07-22T07:37:22;23.00;89.30
41318;DHT22;27067;51.554;7.026;2022-07-22T07:39:47;22.90;87.70
41318;DHT22;27067;51.554;7.026;2022-07-22T07:42:13;22.70;88.10
41318;DHT22;27067;51.554;7.026;2022-07-22T07:44:38;22.60;86.90
41318;DHT22;27067;51.554;7.026;2022-07-22T07:47:04;22.50;86.30
41318;DHT22;27067;51.554;7.026;2022-07-22T07:49:30;22.40;88.30
41318;DHT22;27067;51.554;7.026;2022-07-22T07:51:55;22.40;88.00
41318;DHT22;27067;51.554;7.026;2022-07-22T07:54:21;22.50;89.80
41318;DHT22;27067;51.554;7.026;2022-07-22T07:56:47;22.50;89.70
41318;DHT22;27067;51.554;7.026;2022-07-22T07:59:13;22.50;89.10
41318;DHT22;27067;51.554;7.026;2022-07-22T08:01:39;22.50;88.80
41318;DHT22;27067;51.554;7.026;2022-07-22T08:04:04;22.60;89.60
41318;DHT22;27067;51.554;7.026;2022-07-22T08:06:30;22.60;89.40
41318;DHT22;27067;51.554;7.026;2022-07-22T08:08:55;22.60;89.20
41318;DHT22;27067;51.554;7.026;2022-07-22T08:11:21;22.70;88.40
41318;DHT22;27067;51.554;7.026;2022-07-22T08:13:46;22.70;88.90
41318;DHT22;27067;51.554;7.026;2022-07-22T08:16:12;22.70;88.30
41318;DHT22;27067;51.554;7.026;2022-07-22T08:18:38;22.60;86.00
41318;DHT22;27067;51.554;7.026;2022-07-22T08:21:06;22.40;85.50
41318;DHT22;27067;51.554;7.026;2022-07-22T08:23:32;22.30;85.20
41318;DHT22;27067;51.554;7.026;2022-07-22T08:25:58;22.20;85.40
41318;DHT22;27067;51.554;7.026;2022-07-22T08:28:24;22.30;88.40
41318;DHT22;27067;51.554;7.026;2022-07-22T08:30:50;22.40;88.40
41318;DHT22;27067;51.554;7.026;2022-07-22T08:33:15;22.40;88.80
41318;DHT22;27067;51.554;7.026;2022-07-22T08:35:43;22.40;87.20
41318;DHT22;27067;51.554;7.026;2022-07-22T08:38:09;22.40;88.40
41318;DHT22;27067;51.554;7.026;2022-07-22T08:40:35;22.50;87.90
41318;DHT22;27067;51.554;7.026;2022-07-22T08:43:00;22.50;88.40
41318;DHT22;27067;51.554;7.026;2022-07-22T08:45:28;22.60;88.20
41318;DHT22;27067;51.554;7.026;2022-07-22T08:47:54;22.60;88.00
41318;DHT22;27067;51.554;7.026;2022-07-22T08:50:20;22.50;87.80
41318;DHT22;27067;51.554;7.026;2022-07-22T08:52:45;22.50;88.30
41318;DHT22;27067;51.554;7.026;2022-07-22T08:55:11;22.60;88.20
41318;DHT22;27067;51.554;7.026;2022-07-22T08:57:37;22.60;88.00
41318;DHT22;27067;51.554;7.026;2022-07-22T09:00:08;22.50;87.90
41318;DHT22;27067;51.554;7.026;2022-07-22T09:02:37;22.50;87.50
41318;DHT22;27067;51.554;7.026;2022-07-22T09:05:05;22.50;88.00
41318;DHT22;27067;51.554;7.026;2022-07-22T09:07:31;22.60;88.00
41318;DHT22;27067;51.554;7.026;2022-07-22T09:09:57;22.70;87.70
41318;DHT22;27067;51.554;7.026;2022-07-22T09:12:23;22.70;86.90
41318;DHT22;27067;51.554;7.026;2022-07-22T09:14:53;22.80;87.40
41318;DHT22;27067;51.554;7.026;2022-07-22T09:17:26;22.80;87.30
41318;DHT22;27067;51.554;7.026;2022-07-22T09:19:53;22.80;87.30
41318;DHT22;27067;51.554;7.026;2022-07-22T09:24:56;22.80;87.30
41318;DHT22;27067;51.554;7.026;2022-07-22T09:27:27;22.80;87.20
41318;DHT22;27067;51.554;7.026;2022-07-22T09:29:54;22.80;87.10
41318;DHT22;27067;51.554;7.026;2022-07-22T09:32:21;22.80;86.50
41318;DHT22;27067;51.554;7.026;2022-07-22T09:34:47;22.80;87.00
41318;DHT22;27067;51.554;7.026;2022-07-22T09:37:13;22.80;87.00
41318;DHT22;27067;51.554;7.026;2022-07-22T09:39:39;22.70;86.80
41318;DHT22;27067;51.554;7.026;2022-07-22T09:42:06;22.50;84.60
41318;DHT22;27067;51.554;7.026;2022-07-22T09:44:33;22.40;86.10
41318;DHT22;27067;51.554;7.026;2022-07-22T09:46:59;22.40;87.90
41318;DHT22;27067;51.554;7.026;2022-07-22T09:49:31;22.50;88.00
41318;DHT22;27067;51.554;7.026;2022-07-22T09:51:57;22.60;87.20
41318;DHT22;27067;51.554;7.026;2022-07-22T09:54:22;22.60;87.70
41318;DHT22;27067;51.554;7.026;2022-07-22T09:56:48;22.60;87.40
41318;DHT22;27067;51.554;7.026;2022-07-22T09:59:13;22.70;87.30
41318;DHT22;27067;51.554;7.026;2022-07-22T10:01:39;22.80;86.20
41318;DHT22;27067;51.554;7.026;2022-07-22T10:04:05;22.80;87.00
41318;DHT22;27067;51.554;7.026;2022-07-22T10:06:31;22.80;86.40
41318;DHT22;27067;51.554;7.026;2022-07-22T10:08:57;22.80;86.70
41318;DHT22;27067;51.554;7.026;2022-07-22T10:11:22;22.70;86.30
41318;DHT22;27067;51.554;7.026;2022-07-22T10:13:48;22.70;86.90
41318;DHT22;27067;51.554;7.026;2022-07-22T10:16:14;22.80;86.40
41318;DHT22;27067;51.554;7.026;2022-07-22T10:18:43;22.80;86.70
41318;DHT22;27067;51.554;7.026;2022-07-22T10:21:09;22.80;85.70
41318;DHT22;27067;51.554;7.026;2022-07-22T10:23:35;22.80;86.10
41318;DHT22;27067;51.554;7.026;2022-07-22T10:26:02;22.80;86.00
41318;DHT22;27067;51.554;7.026;2022-07-22T10:28:32;22.70;86.10
41318;DHT22;27067;51.554;7.026;2022-07-22T10:33:43;22.70;86.10
41318;DHT22;27067;51.554;7.026;2022-07-22T10:36:09;22.80;85.80
41318;DHT22;27067;51.554;7.026;2022-07-22T10:38:35;22.80;85.90
41318;DHT22;27067;51.554;7.026;2022-07-22T10:41:04;22.80;85.00
41318;DHT22;27067;51.554;7.026;2022-07-22T10:43:52;22.80;85.60
41318;DHT22;27067;51.554;7.026;2022-07-22T10:46:16;22.80;85.60
41318;DHT22;27067;51.554;7.026;2022-07-22T10:53:43;22.80;85.90
41318;DHT22;27067;51.554;7.026;2022-07-22T10:56:14;22.80;85.80
41318;DHT22;27067;51.554;7.026;2022-07-22T10:58:41;22.80;85.90
41318;DHT22;27067;51.554;7.026;2022-07-22T11:01:11;22.60;85.00
41318;DHT22;27067;51.554;7.026;2022-07-22T11:03:38;22.60;84.90
41318;DHT22;27067;51.554;7.026;2022-07-22T11:08:39;22.50;85.20
41318;DHT22;27067;51.554;7.026;2022-07-22T11:11:05;22.30;83.90
41318;DHT22;27067;51.554;7.026;2022-07-22T11:13:37;22.30;85.70
41318;DHT22;27067;51.554;7.026;2022-07-22T11:16:13;22.30;86.60
41318;DHT22;27067;51.554;7.026;2022-07-22T11:18:52;22.30;87.20
41318;DHT22;27067;51.554;7.026;2022-07-22T11:21:18;22.30;87.00
41318;DHT22;27067;51.554;7.026;2022-07-22T11:23:44;22.40;87.50
41318;DHT22;27067;51.554;7.026;2022-07-22T11:26:13;22.50;87.20
41318;DHT22;27067;51.554;7.026;2022-07-22T11:28:44;22.60;86.70
41318;DHT22;27067;51.554;7.026;2022-07-22T11:31:13;22.60;86.40
41318;DHT22;27067;51.554;7.026;2022-07-22T11:33:40;22.60;86.60
41318;DHT22;27067;51.554;7.026;2022-07-22T11:36:06;22.60;86.10
41318;DHT22;27067;51.554;7.026;2022-07-22T11:39:06;22.70;86.20
41318;DHT22;27067;51.554;7.026;2022-07-22T11:41:24;22.70;85.20
41318;DHT22;27067;51.554;7.026;2022-07-22T11:43:50;22.70;85.30
41318;DHT22;27067;51.554;7.026;2022-07-22T11:46:17;22.60;85.30
41318;DHT22;27067;51.554;7.026;2022-07-22T11:48:43;22.60;85.60
41318;DHT22;27067;51.554;7.026;2022-07-22T11:51:10;22.60;85.50
41318;DHT22;27067;51.554;7.026;2022-07-22T11:53:39;22.60;85.70
41318;DHT22;27067;51.554;7.026;2022-07-22T11:56:06;22.50;84.20
41318;DHT22;27067;51.554;7.026;2022-07-22T11:58:45;22.40;85.50
41318;DHT22;27067;51.554;7.026;2022-07-22T12:01:12;22.50;86.50
41318;DHT22;27067;51.554;7.026;2022-07-22T12:03:38;22.50;87.00
41318;DHT22;27067;51.554;7.026;2022-07-22T12:06:05;22.50;86.40
41318;DHT22;27067;51.554;7.026;2022-07-22T12:08:31;22.60;86.10
41318;DHT22;27067;51.554;7.026;2022-07-22T12:10:57;22.60;85.00
41318;DHT22;27067;51.554;7.026;2022-07-22T12:13:29;22.60;85.50
41318;DHT22;27067;51.554;7.026;2022-07-22T12:15:55;22.60;85.50
41318;DHT22;27067;51.554;7.026;2022-07-22T12:18:22;22.40;84.50
41318;DHT22;27067;51.554;7.026;2022-07-22T12:20:48;22.50;84.50
41318;DHT22;27067;51.554;7.026;2022-07-22T12:23:14;22.50;85.00
41318;DHT22;27067;51.554;7.026;2022-07-22T12:25:59;22.50;85.20
41318;DHT22;27067;51.554;7.026;2022-07-22T12:28:25;22.50;84.90
41318;DHT22;27067;51.554;7.026;2022-07-22T12:30:52;22.40;84.60
41318;DHT22;27067;51.554;7.026;2022-07-22T12:33:19;22.40;85.10
41318;DHT22;27067;51.554;7.026;2022-07-22T12:35:57;22.40;84.80
41318;DHT22;27067;51.554;7.026;2022-07-22T12:38:23;22.40;84.10
41318;DHT22;27067;51.554;7.026;2022-07-22T12:40:48;22.40;83.10
41318;DHT22;27067;51.554;7.026;2022-07-22T12:43:14;22.50;83.60
41318;DHT22;27067;51.554;7.026;2022-07-22T12:45:39;22.50;83.40
41318;DHT22;27067;51.554;7.026;2022-07-22T12:48:07;22.50;83.10
41318;DHT22;27067;51.554;7.026;2022-07-22T12:55:31;22.50;83.30
41318;DHT22;27067;51.554;7.026;2022-07-22T12:57:57;22.40;83.40
41318;DHT22;27067;51.554;7.026;2022-07-22T13:00:24;22.40;82.80
41318;DHT22;27067;51.554;7.026;2022-07-22T13:02:50;22.50;83.40
41318;DHT22;27067;51.554;7.026;2022-07-22T13:05:16;22.40;83.20
41318;DHT22;27067;51.554;7.026;2022-07-22T13:07:42;22.40;82.80
41318;DHT22;27067;51.554;7.026;2022-07-22T13:10:08;22.40;83.20
41318;DHT22;27067;51.554;7.026;2022-07-22T13:12:33;22.40;82.50
41318;DHT22;27067;51.554;7.026;2022-07-22T13:14:59;22.50;83.00
41318;DHT22;27067;51.554;7.026;2022-07-22T13:17:24;22.50;82.70
41318;DHT22;27067;51.554;7.026;2022-07-22T13:19:50;22.60;82.50
41318;DHT22;27067;51.554;7.026;2022-07-22T13:22:15;22.60;81.90
41318;DHT22;27067;51.554;7.026;2022-07-22T13:24:41;22.60;82.50
41318;DHT22;27067;51.554;7.026;2022-07-22T13:27:06;22.60;82.50
41318;DHT22;27067;51.554;7.026;2022-07-22T13:29:32;22.60;82.60
41318;DHT22;27067;51.554;7.026;2022-07-22T13:31:58;22.60;82.00
41318;DHT22;27067;51.554;7.026;2022-07-22T13:34:23;22.60;82.00
41318;DHT22;27067;51.554;7.026;2022-07-22T13:36:49;22.60;82.30
41318;DHT22;27067;51.554;7.026;2022-07-22T13:39:15;22.60;82.30
41318;DHT22;27067;51.554;7.026;2022-07-22T13:41:40;22.70;81.80
41318;DHT22;27067;51.554;7.026;2022-07-22T13:44:06;22.70;82.30
41318;DHT22;27067;51.554;7.026;2022-07-22T13:46:35;22.70;82.00
41318;DHT22;27067;51.554;7.026;2022-07-22T13:49:01;22.80;81.90
41318;DHT22;27067;51.554;7.026;2022-07-22T13:51:27;22.70;81.60
41318;DHT22;27067;51.554;7.026;2022-07-22T13:53:52;22.70;82.30
41318;DHT22;27067;51.554;7.026;2022-07-22T13:56:18;22.70;82.10
41318;DHT22;27067;51.554;7.026;2022-07-22T13:58:44;22.70;82.10
41318;DHT22;27067;51.554;7.026;2022-07-22T14:01:10;22.70;81.50
41318;DHT22;27067;51.554;7.026;2022-07-22T14:03:36;22.60;81.80
41318;DHT22;27067;51.554;7.026;2022-07-22T14:06:02;22.60;82.20
41318;DHT22;27067;51.554;7.026;2022-07-22T14:08:28;22.60;82.20
41318;DHT22;27067;51.554;7.026;2022-07-22T14:10:54;22.60;81.60
41318;DHT22;27067;51.554;7.026;2022-07-22T14:13:19;22.50;82.10
41318;DHT22;27067;51.554;7.026;2022-07-22T14:15:45;22.60;82.10
41318;DHT22;27067;51.554;7.026;2022-07-22T14:18:10;22.50;82.00
41318;DHT22;27067;51.554;7.026;2022-07-22T14:20:36;22.50;81.70
41318;DHT22;27067;51.554;7.026;2022-07-22T14:23:01;22.50;82.30
41318;DHT22;27067;51.554;7.026;2022-07-22T14:25:28;22.50;82.30
41318;DHT22;27067;51.554;7.026;2022-07-22T14:27:54;22.50;81.50
41318;DHT22;27067;51.554;7.026;2022-07-22T14:30:19;22.60;81.80
41318;DHT22;27067;51.554;7.026;2022-07-22T14:32:45;22.60;82.30
41318;DHT22;27067;51.554;7.026;2022-07-22T14:35:10;22.60;82.30
41318;DHT22;27067;51.554;7.026;2022-07-22T14:37:36;22.60;82.30
41318;DHT22;27067;51.554;7.026;2022-07-22T14:40:02;22.60;82.30
41318;DHT22;27067;51.554;7.026;2022-07-22T14:42:27;22.70;81.20
41318;DHT22;27067;51.554;7.026;2022-07-22T14:44:53;22.60;80.80
41318;DHT22;27067;51.554;7.026;2022-07-22T14:47:18;22.60;80.90
41318;DHT22;27067;51.554;7.026;2022-07-22T14:49:44;22.50;81.60
41318;DHT22;27067;51.554;7.026;2022-07-22T14:52:09;22.50;81.90
41318;DHT22;27067;51.554;7.026;2022-07-22T14:54:35;22.60;82.30
41318;DHT22;27067;51.554;7.026;2022-07-22T14:57:00;22.60;82.10
41318;DHT22;27067;51.554;7.026;2022-07-22T14:59:26;22.60;82.10
41318;DHT22;27067;51.554;7.026;2022-07-22T15:01:52;22.70;81.50
41318;DHT22;27067;51.554;7.026;2022-07-22T15:04:17;22.70;82.10
41318;DHT22;27067;51.554;7.026;2022-07-22T15:06:43;22.70;82.10
41318;DHT22;27067;51.554;7.026;2022-07-22T15:09:09;22.70;81.60
41318;DHT22;27067;51.554;7.026;2022-07-22T15:11:35;22.70;81.50
41318;DHT22;27067;51.554;7.026;2022-07-22T15:14:00;22.70;82.00
41318;DHT22;27067;51.554;7.026;2022-07-22T15:16:26;22.70;81.50
41318;DHT22;27067;51.554;7.026;2022-07-22T15:18:52;22.70;82.00
41318;DHT22;27067;51.554;7.026;2022-07-22T15:21:17;24.70;82.40
41318;DHT22;27067;51.554;7.026;2022-07-22T15:23:43;22.70;81.70
41318;DHT22;27067;51.554;7.026;2022-07-22T15:26:08;22.70;82.20
41318;DHT22;27067;51.554;7.026;2022-07-22T15:28:34;22.70;81.40
41318;DHT22;27067;51.554;7.026;2022-07-22T15:31:03;22.70;80.80
41318;DHT22;27067;51.554;7.026;2022-07-22T15:33:28;22.70;81.40
41318;DHT22;27067;51.554;7.026;2022-07-22T15:35:54;22.70;81.10
41318;DHT22;27067;51.554;7.026;2022-07-22T15:38:20;22.70;81.20
41318;DHT22;27067;51.554;7.026;2022-07-22T15:40:45;22.60;80.60
41318;DHT22;27067;51.554;7.026;2022-07-22T15:43:11;22.60;81.10